N808SP KRYY-KATL
Flight info
| Callsign | N808SP |
|---|---|
| Flight time | 0h 19m |
| Altitude | 2500 |
| Route | KRYY KATL |
| Aircraft | C172/L-VGDW/C |
Departure
| Time | 2026-05-05 22:43 |
|---|---|
| Airport | Cobb County International Airport-McCollum Field (KRYY) |
Arrival
| Time | 2026-05-05 23:02 |
|---|---|
| Airport | Hartsfield Jackson Atlanta International Airport (KATL) |
| Time | Latitude | Longitude | Altitude | Speed | Heading |
|---|---|---|---|---|---|
| 2026-05-05 22:37 | 34.01505 | -84.60353 | 1031 ft | 0 kts | 22° |
| 2026-05-05 22:38 | 34.01508 | -84.60352 | 1031 ft | 3 kts | 5° |
| 2026-05-05 22:38 | 34.01521 | -84.60399 | 1032 ft | 9 kts | 273° |
| 2026-05-05 22:38 | 34.01524 | -84.60393 | 1032 ft | 9 kts | 93° |
| 2026-05-05 22:38 | 34.01521 | -84.60288 | 1028 ft | 14 kts | 102° |
| 2026-05-05 22:39 | 34.01473 | -84.60233 | 1026 ft | 8 kts | 277° |
| 2026-05-05 22:39 | 34.01477 | -84.60215 | 1024 ft | 12 kts | 92° |
| 2026-05-05 22:39 | 34.01409 | -84.60121 | 1020 ft | 16 kts | 168° |
| 2026-05-05 22:39 | 34.01374 | -84.60186 | 1025 ft | 8 kts | 268° |
| 2026-05-05 22:40 | 34.01374 | -84.60293 | 1029 ft | 19 kts | 269° |
| 2026-05-05 22:40 | 34.01374 | -84.60462 | 1035 ft | 17 kts | 273° |
| 2026-05-05 22:40 | 34.01367 | -84.60532 | 1037 ft | 1 kts | 230° |
| 2026-05-05 22:40 | 34.01354 | -84.60540 | 1038 ft | 6 kts | 188° |
| 2026-05-05 22:41 | 34.01302 | -84.60523 | 1038 ft | 10 kts | 100° |
| 2026-05-05 22:41 | 34.01302 | -84.60429 | 1035 ft | 19 kts | 86° |
| 2026-05-05 22:41 | 34.01309 | -84.60051 | 1018 ft | 68 kts | 89° |
| 2026-05-05 22:41 | 34.01353 | -84.59420 | 1115 ft | 78 kts | 87° |
| 2026-05-05 22:42 | 34.01753 | -84.58942 | 1272 ft | 80 kts | 45° |
| 2026-05-05 22:42 | 34.02159 | -84.58563 | 1449 ft | 71 kts | 45° |
| 2026-05-05 22:42 | 34.02516 | -84.58058 | 1448 ft | 80 kts | 65° |
| 2026-05-05 22:42 | 34.02671 | -84.57475 | 1584 ft | 72 kts | 85° |
| 2026-05-05 22:43 | 34.02758 | -84.56873 | 1708 ft | 74 kts | 91° |
| 2026-05-05 22:43 | 34.02831 | -84.56251 | 1830 ft | 76 kts | 94° |
| 2026-05-05 22:43 | 34.02914 | -84.55602 | 1966 ft | 79 kts | 91° |
| 2026-05-05 22:43 | 34.02993 | -84.54923 | 2097 ft | 83 kts | 92° |
| 2026-05-05 22:44 | 34.03086 | -84.54231 | 2219 ft | 85 kts | 89° |
| 2026-05-05 22:44 | 34.03171 | -84.53519 | 2345 ft | 85 kts | 99° |
| 2026-05-05 22:44 | 34.02977 | -84.52914 | 2461 ft | 75 kts | 143° |
| 2026-05-05 22:44 | 34.02515 | -84.52692 | 2582 ft | 72 kts | 172° |
| 2026-05-05 22:45 | 34.01986 | -84.52589 | 2606 ft | 81 kts | 174° |
| 2026-05-05 22:45 | 34.01393 | -84.52469 | 2618 ft | 89 kts | 172° |
| 2026-05-05 22:45 | 34.00760 | -84.52328 | 2620 ft | 94 kts | 171° |
| 2026-05-05 22:45 | 34.00094 | -84.52167 | 2613 ft | 97 kts | 171° |
| 2026-05-05 22:46 | 33.99420 | -84.52000 | 2615 ft | 99 kts | 171° |
| 2026-05-05 22:46 | 33.98744 | -84.51829 | 2615 ft | 99 kts | 170° |
| 2026-05-05 22:46 | 33.98062 | -84.51655 | 2613 ft | 101 kts | 170° |
| 2026-05-05 22:46 | 33.97362 | -84.51476 | 2617 ft | 101 kts | 170° |
| 2026-05-05 22:47 | 33.96667 | -84.51296 | 2614 ft | 102 kts | 171° |
| 2026-05-05 22:47 | 33.95965 | -84.51115 | 2612 ft | 103 kts | 171° |
| 2026-05-05 22:47 | 33.95265 | -84.50933 | 2611 ft | 102 kts | 170° |
| 2026-05-05 22:47 | 33.94566 | -84.50752 | 2608 ft | 102 kts | 171° |
| 2026-05-05 22:48 | 33.93870 | -84.50571 | 2608 ft | 102 kts | 170° |
| 2026-05-05 22:48 | 33.93174 | -84.50394 | 2614 ft | 103 kts | 170° |
| 2026-05-05 22:48 | 33.92464 | -84.50210 | 2613 ft | 103 kts | 169° |
| 2026-05-05 22:48 | 33.91769 | -84.50029 | 2611 ft | 103 kts | 169° |
| 2026-05-05 22:49 | 33.91061 | -84.49845 | 2613 ft | 102 kts | 171° |
| 2026-05-05 22:49 | 33.90367 | -84.49665 | 2614 ft | 102 kts | 170° |
| 2026-05-05 22:49 | 33.89668 | -84.49487 | 2611 ft | 102 kts | 169° |
| 2026-05-05 22:49 | 33.88970 | -84.49305 | 2619 ft | 102 kts | 169° |
| 2026-05-05 22:50 | 33.88273 | -84.49124 | 2624 ft | 102 kts | 170° |
| 2026-05-05 22:50 | 33.87580 | -84.48945 | 2623 ft | 102 kts | 170° |
| 2026-05-05 22:50 | 33.86878 | -84.48764 | 2625 ft | 102 kts | 169° |
| 2026-05-05 22:50 | 33.86185 | -84.48585 | 2625 ft | 102 kts | 170° |
| 2026-05-05 22:51 | 33.85477 | -84.48400 | 2627 ft | 103 kts | 170° |
| 2026-05-05 22:51 | 33.84781 | -84.48222 | 2625 ft | 103 kts | 171° |
| 2026-05-05 22:51 | 33.84079 | -84.48040 | 2627 ft | 103 kts | 170° |
| 2026-05-05 22:51 | 33.83369 | -84.47858 | 2626 ft | 103 kts | 171° |
| 2026-05-05 22:52 | 33.82669 | -84.47677 | 2628 ft | 103 kts | 171° |
| 2026-05-05 22:52 | 33.81968 | -84.47494 | 2621 ft | 102 kts | 171° |
| 2026-05-05 22:52 | 33.81273 | -84.47316 | 2620 ft | 102 kts | 170° |
| 2026-05-05 22:52 | 33.80576 | -84.47137 | 2626 ft | 102 kts | 171° |
| 2026-05-05 22:53 | 33.79869 | -84.46955 | 2617 ft | 103 kts | 171° |
| 2026-05-05 22:53 | 33.79158 | -84.46771 | 2624 ft | 104 kts | 171° |
| 2026-05-05 22:53 | 33.78457 | -84.46590 | 2615 ft | 103 kts | 171° |
| 2026-05-05 22:53 | 33.77756 | -84.46410 | 2617 ft | 103 kts | 170° |
| 2026-05-05 22:54 | 33.77042 | -84.46226 | 2621 ft | 103 kts | 170° |
| 2026-05-05 22:54 | 33.76340 | -84.46044 | 2618 ft | 103 kts | 170° |
| 2026-05-05 22:54 | 33.75630 | -84.45860 | 2619 ft | 103 kts | 172° |
| 2026-05-05 22:54 | 33.74930 | -84.45679 | 2614 ft | 102 kts | 169° |
| 2026-05-05 22:55 | 33.74224 | -84.45499 | 2614 ft | 103 kts | 171° |
| 2026-05-05 22:55 | 33.73530 | -84.45321 | 2614 ft | 101 kts | 170° |
| 2026-05-05 22:55 | 33.72812 | -84.45136 | 2493 ft | 107 kts | 169° |
| 2026-05-05 22:55 | 33.72073 | -84.44946 | 2378 ft | 110 kts | 169° |
| 2026-05-05 22:56 | 33.71303 | -84.44748 | 2263 ft | 113 kts | 171° |
| 2026-05-05 22:56 | 33.70534 | -84.44548 | 2157 ft | 112 kts | 171° |
| 2026-05-05 22:56 | 33.69781 | -84.44357 | 2118 ft | 108 kts | 169° |
| 2026-05-05 22:56 | 33.69066 | -84.44171 | 2115 ft | 103 kts | 169° |
| 2026-05-05 22:57 | 33.68367 | -84.43991 | 2120 ft | 101 kts | 171° |
| 2026-05-05 22:57 | 33.67681 | -84.43813 | 2115 ft | 100 kts | 167° |
| 2026-05-05 22:57 | 33.67142 | -84.43288 | 2121 ft | 108 kts | 123° |
| 2026-05-05 22:57 | 33.67065 | -84.42355 | 2126 ft | 116 kts | 88° |
| 2026-05-05 22:58 | 33.67229 | -84.41383 | 2118 ft | 119 kts | 83° |
| 2026-05-05 22:58 | 33.67417 | -84.40431 | 2111 ft | 113 kts | 83° |
| 2026-05-05 22:58 | 33.67594 | -84.39588 | 2119 ft | 94 kts | 86° |
| 2026-05-05 22:58 | 33.67762 | -84.38889 | 2123 ft | 84 kts | 84° |
| 2026-05-05 22:59 | 33.67920 | -84.38216 | 2118 ft | 80 kts | 89° |
| 2026-05-05 22:59 | 33.67928 | -84.37606 | 2109 ft | 67 kts | 127° |
| 2026-05-05 22:59 | 33.67665 | -84.37269 | 2127 ft | 50 kts | 161° |
| 2026-05-05 22:59 | 33.67342 | -84.37111 | 2103 ft | 53 kts | 167° |
| 2026-05-05 23:00 | 33.66495 | -84.37058 | 1897 ft | 71 kts | 211° |
| 2026-05-05 23:00 | 33.66222 | -84.37595 | 1734 ft | 84 kts | 237° |
| 2026-05-05 23:00 | 33.65965 | -84.38129 | 1672 ft | 73 kts | 231° |
| 2026-05-05 23:01 | 33.65722 | -84.38617 | 1659 ft | 65 kts | 229° |
| 2026-05-05 23:01 | 33.65488 | -84.39055 | 1595 ft | 59 kts | 226° |
| 2026-05-05 23:01 | 33.65273 | -84.39503 | 1452 ft | 63 kts | 230° |
| 2026-05-05 23:01 | 33.65107 | -84.39987 | 1303 ft | 65 kts | 242° |
| 2026-05-05 23:02 | 33.65006 | -84.40533 | 1143 ft | 69 kts | 249° |
| 2026-05-05 23:02 | 33.64970 | -84.41110 | 1021 ft | 68 kts | 259° |
| 2026-05-05 23:02 | 33.64962 | -84.41610 | 973 ft | 49 kts | 265° |
| 2026-05-05 23:02 | 33.64959 | -84.41956 | 972 ft | 37 kts | 266° |
| 2026-05-05 23:03 | 33.64986 | -84.42220 | 977 ft | 21 kts | 339° |
| 2026-05-05 23:03 | 33.65062 | -84.42316 | 979 ft | 13 kts | 274° |
| 2026-05-05 23:03 | 33.65063 | -84.42432 | 981 ft | 18 kts | 270° |
| 2026-05-05 23:03 | 33.65065 | -84.42639 | 985 ft | 40 kts | 268° |
| 2026-05-05 23:04 | 33.65064 | -84.43002 | 992 ft | 38 kts | 268° |
| 2026-05-05 23:04 | 33.65121 | -84.43185 | 995 ft | 11 kts | 342° |
| 2026-05-05 23:04 | 33.65162 | -84.43162 | 995 ft | 0 kts | 91° |
| 2026-05-05 23:05 | 33.65162 | -84.43156 | 994 ft | 4 kts | 95° |
| 2026-05-05 23:05 | 33.65152 | -84.43055 | 993 ft | 18 kts | 94° |
| 2026-05-05 23:05 | 33.65142 | -84.42855 | 989 ft | 25 kts | 88° |
| 2026-05-05 23:06 | 33.65147 | -84.42699 | 986 ft | 0 kts | 90° |